Time;durP1;ratioP1;P1;durP2;ratioP2;P2;SDS_P1;SDS_P2;PMS_P1;PMS_P2;Temp;Humidity;BMP_temperature;BMP_pressure;BME280_temperature;BME280_humidity;BME280_pressure;Samples;Min_cycle;Max_cycle;Signal;HPM_P1;HPM_P2
2022/12/06 00:01:25;;;;;;;7.17;6.10;;;2.00;99.90;;;;;;5073162;28;20574;-79
2022/12/06 00:03:56;;;;;;;7.47;6.07;;;2.10;99.90;;;;;;5073057;28;20275;-78
2022/12/06 00:06:26;;;;;;;8.33;6.23;;;2.10;99.90;;;;;;5075025;28;20227;-79
2022/12/06 00:08:55;;;;;;;7.33;6.17;;;2.10;99.90;;;;;;5093128;28;20203;-79
2022/12/06 00:11:25;;;;;;;7.30;6.47;;;2.10;99.90;;;;;;5093329;28;20540;-78
2022/12/06 00:13:55;;;;;;;7.83;6.60;;;2.10;99.90;;;;;;5093383;28;20199;-79
2022/12/06 00:16:24;;;;;;;7.87;6.73;;;2.10;99.90;;;;;;5093297;28;20298;-79
2022/12/06 00:18:54;;;;;;;8.33;6.70;;;2.20;99.90;;;;;;5092293;28;20211;-79
2022/12/06 00:21:24;;;;;;;8.57;6.90;;;2.10;99.90;;;;;;5093053;28;20233;-77
2022/12/06 00:23:54;;;;;;;7.47;6.37;;;2.10;99.90;;;;;;5092768;28;20207;-79
2022/12/06 00:26:23;;;;;;;8.23;6.70;;;2.10;99.90;;;;;;5092216;28;20210;-79
2022/12/06 00:28:53;;;;;;;8.53;7.20;;;2.10;99.90;;;;;;5091963;28;20229;-79
2022/12/06 00:31:22;;;;;;;9.00;7.57;;;2.10;99.90;;;;;;5093000;28;20420;-78
2022/12/06 00:33:51;;;;;;;10.03;8.30;;;2.10;99.90;;;;;;5092896;28;20210;-75
2022/12/06 00:36:22;;;;;;;10.70;8.47;;;2.10;99.90;;;;;;5093162;28;20214;-77
2022/12/06 00:38:51;;;;;;;9.73;8.73;;;2.10;99.90;;;;;;5092843;28;20636;-74
2022/12/06 00:41:21;;;;;;;10.73;9.17;;;2.10;99.90;;;;;;5094102;28;20221;-73
2022/12/06 00:43:50;;;;;;;11.23;9.97;;;2.10;99.90;;;;;;5093574;28;20283;-73
2022/12/06 00:46:20;;;;;;;11.63;9.83;;;2.10;99.90;;;;;;5078655;28;20203;-78
2022/12/06 00:48:49;;;;;;;11.73;10.00;;;2.10;99.90;;;;;;5072583;28;20227;-76
2022/12/06 00:51:19;;;;;;;11.77;10.33;;;2.00;99.90;;;;;;5072525;28;20313;-79
2022/12/06 00:53:48;;;;;;;12.57;10.20;;;2.10;99.90;;;;;;5071965;28;20680;-77
2022/12/06 00:56:17;;;;;;;11.87;10.30;;;2.10;99.90;;;;;;5072886;28;20213;-77
2022/12/06 00:58:45;;;;;;;11.47;10.03;;;2.10;99.90;;;;;;5072198;28;20581;-78
2022/12/06 01:01:20;;;;;;;12.03;10.13;;;2.10;99.90;;;;;;5072515;28;20696;-78
2022/12/06 01:03:54;;;;;;;13.30;10.07;;;2.10;99.90;;;;;;5072249;28;20328;-79
2022/12/06 01:06:26;;;;;;;18.87;14.33;;;2.20;99.90;;;;;;5072731;28;20293;-79
2022/12/06 01:08:57;;;;;;;20.40;15.63;;;2.00;99.90;;;;;;5072053;28;20183;-79
2022/12/06 01:11:27;;;;;;;17.10;13.67;;;2.10;99.90;;;;;;5089033;28;20206;-78
2022/12/06 01:13:56;;;;;;;14.93;12.30;;;2.00;99.90;;;;;;5091933;28;20577;-75
2022/12/06 01:16:26;;;;;;;16.17;12.87;;;2.00;99.90;;;;;;5092372;28;20218;-79
2022/12/06 01:18:57;;;;;;;13.37;11.80;;;2.00;99.90;;;;;;5092458;28;20203;-78
2022/12/06 01:21:26;;;;;;;13.80;12.27;;;2.00;99.90;;;;;;5091842;28;20226;-79
2022/12/06 01:23:54;;;;;;;13.27;11.57;;;2.00;99.90;;;;;;5092799;28;20210;-74
2022/12/06 01:26:26;;;;;;;15.50;12.40;;;2.00;99.90;;;;;;5093145;28;20396;-74
2022/12/06 01:28:54;;;;;;;15.93;12.67;;;2.00;99.90;;;;;;5102367;28;20207;-79
2022/12/06 01:31:22;;;;;;;14.87;11.87;;;1.90;99.90;;;;;;5078088;28;20284;-79
2022/12/06 01:33:50;;;;;;;13.47;11.83;;;1.90;99.90;;;;;;5076242;28;20251;-78
2022/12/06 01:36:20;;;;;;;15.97;13.23;;;1.90;99.90;;;;;;5075853;28;20672;-79
2022/12/06 01:38:52;;;;;;;15.30;12.63;;;2.00;99.90;;;;;;5076635;28;20203;-79
2022/12/06 01:41:23;;;;;;;15.23;11.70;;;1.80;99.90;;;;;;5081160;28;20211;-79
2022/12/06 01:43:52;;;;;;;17.00;13.90;;;1.80;99.90;;;;;;5096017;28;20221;-77
2022/12/06 01:46:31;;;;;;;16.97;13.33;;;1.80;99.90;;;;;;5096540;28;20207;-77
2022/12/06 01:49:11;;;;;;;16.60;14.07;;;1.70;99.90;;;;;;5075857;28;20219;-78
2022/12/06 01:51:43;;;;;;;17.03;14.30;;;1.70;99.90;;;;;;5076207;28;20202;-73
2022/12/06 01:54:17;;;;;;;17.40;14.43;;;1.70;99.90;;;;;;5075606;28;20216;-79
2022/12/06 01:56:47;;;;;;;17.17;14.53;;;1.70;99.90;;;;;;5080488;28;20237;-79
2022/12/06 01:59:16;;;;;;;18.00;14.80;;;1.60;99.90;;;;;;5097257;28;20203;-75
2022/12/06 02:01:45;;;;;;;17.67;14.73;;;1.60;99.90;;;;;;5096995;28;20203;-76
2022/12/06 02:04:14;;;;;;;18.03;15.23;;;1.60;99.90;;;;;;5097025;28;20211;-76
2022/12/06 02:06:43;;;;;;;19.00;15.20;;;1.60;99.90;;;;;;5079842;28;20668;-75
2022/12/06 02:09:13;;;;;;;19.70;15.60;;;1.60;99.90;;;;;;5075805;28;20694;-78
2022/12/06 02:11:42;;;;;;;20.00;15.50;;;1.60;99.90;;;;;;5076283;28;20207;-80
2022/12/06 02:14:16;;;;;;;20.00;15.63;;;1.60;99.90;;;;;;5077359;28;20207;-76
2022/12/06 02:17:11;;;;;;;18.00;15.10;;;1.70;99.90;;;;;;5076353;28;20192;-79
2022/12/06 02:19:56;;;;;;;17.47;14.63;;;1.60;99.90;;;;;;5076258;28;20254;-78
2022/12/06 02:22:33;;;;;;;17.63;14.67;;;1.60;99.90;;;;;;5076830;28;20222;-78
2022/12/06 02:25:13;;;;;;;19.43;14.83;;;1.60;99.90;;;;;;5077257;28;20534;-77
2022/12/06 02:28:05;;;;;;;18.43;14.37;;;1.60;99.90;;;;;;5076125;28;20224;-80
2022/12/06 02:30:44;;;;;;;19.07;14.97;;;1.60;99.90;;;;;;5075081;28;20212;-77
2022/12/06 02:33:20;;;;;;;17.47;14.10;;;1.50;99.90;;;;;;5074758;28;20206;-79
2022/12/06 02:35:53;;;;;;;17.93;14.83;;;1.60;99.90;;;;;;5075099;28;20192;-79
2022/12/06 02:38:30;;;;;;;18.07;14.80;;;1.50;99.90;;;;;;5075049;28;20282;-80
2022/12/06 02:41:02;;;;;;;17.20;14.70;;;1.50;99.90;;;;;;5074882;28;20204;-78
2022/12/06 02:43:35;;;;;;;18.17;15.03;;;1.50;99.90;;;;;;5087480;28;20203;-80
2022/12/06 02:46:07;;;;;;;19.87;15.30;;;1.40;99.90;;;;;;5095027;28;20198;-77
2022/12/06 02:48:36;;;;;;;20.10;15.60;;;1.40;99.90;;;;;;5095171;28;20213;-79
2022/12/06 02:51:09;;;;;;;17.37;14.87;;;1.40;99.90;;;;;;5095069;28;20207;-75
2022/12/06 02:53:41;;;;;;;18.97;15.30;;;1.40;99.90;;;;;;5090867;28;20487;-77
2022/12/06 02:56:10;;;;;;;18.10;15.27;;;1.30;99.90;;;;;;5080430;28;20209;-76
2022/12/06 02:58:38;;;;;;;17.97;15.57;;;1.30;99.90;;;;;;5094883;28;20214;-80
2022/12/06 03:01:12;;;;;;;19.13;16.07;;;1.30;99.90;;;;;;5094619;28;20539;-79
2022/12/06 03:03:57;;;;;;;18.87;15.57;;;1.30;99.90;;;;;;5094590;28;20194;-79
2022/12/06 03:06:41;;;;;;;19.60;16.00;;;1.30;99.90;;;;;;5095011;28;20195;-79
2022/12/06 03:09:20;;;;;;;20.50;15.47;;;1.30;99.90;;;;;;5094236;28;20219;-79
2022/12/06 03:11:55;;;;;;;19.10;15.60;;;1.40;99.90;;;;;;5093544;28;20202;-79
2022/12/06 03:14:26;;;;;;;20.33;15.30;;;1.50;99.90;;;;;;5094462;28;20191;-79
2022/12/06 03:17:06;;;;;;;22.80;15.80;;;1.40;99.90;;;;;;5094471;28;20187;-81
2022/12/06 03:19:36;;;;;;;19.00;15.17;;;1.40;99.90;;;;;;5092608;28;20229;-78
2022/12/06 03:22:08;;;;;;;17.80;14.70;;;1.40;99.90;;;;;;5093604;28;20211;-79
2022/12/06 03:24:40;;;;;;;19.57;15.53;;;1.40;99.90;;;;;;5093917;28;20791;-80
2022/12/06 03:27:14;;;;;;;19.93;15.27;;;1.40;99.90;;;;;;5093408;28;20200;-79
2022/12/06 03:29:47;;;;;;;19.87;15.40;;;1.50;99.90;;;;;;5088172;28;20219;-79
2022/12/06 03:32:21;;;;;;;21.00;16.07;;;1.50;99.90;;;;;;5094024;28;20684;-77
2022/12/06 03:34:51;;;;;;;20.27;15.57;;;1.60;99.90;;;;;;5093665;28;20580;-77
2022/12/06 03:37:23;;;;;;;20.53;16.03;;;1.60;99.90;;;;;;5093799;28;20668;-78
2022/12/06 03:40:02;;;;;;;20.40;14.90;;;1.60;99.90;;;;;;5093771;28;20203;-77
2022/12/06 03:42:31;;;;;;;20.93;15.53;;;1.60;99.90;;;;;;5076767;28;20211;-78
2022/12/06 03:45:01;;;;;;;17.57;13.47;;;1.70;99.90;;;;;;5073778;28;20207;-78
2022/12/06 03:47:37;;;;;;;15.93;13.03;;;1.70;99.90;;;;;;5073831;28;20218;-78
2022/12/06 03:50:10;;;;;;;17.00;13.03;;;1.70;99.90;;;;;;5077878;28;20221;-79
2022/12/06 03:52:39;;;;;;;15.90;12.57;;;1.70;99.90;;;;;;5093580;28;20223;-78
2022/12/06 03:55:08;;;;;;;16.33;12.93;;;1.70;99.90;;;;;;5092712;28;20830;-78
2022/12/06 03:57:37;;;;;;;16.60;12.60;;;1.70;99.90;;;;;;5093955;28;20548;-78
2022/12/06 04:00:07;;;;;;;14.53;12.63;;;1.70;99.90;;;;;;5088663;28;20198;-79
2022/12/06 04:02:36;;;;;;;13.57;11.70;;;1.70;99.90;;;;;;5109292;28;20571;-78
2022/12/06 04:05:05;;;;;;;14.93;12.60;;;1.70;99.90;;;;;;5093835;28;20222;-78
2022/12/06 04:07:33;;;;;;;14.10;11.70;;;1.70;99.90;;;;;;5093526;28;20207;-78
2022/12/06 04:10:02;;;;;;;16.77;12.97;;;1.70;99.90;;;;;;5081241;28;20231;-77
2022/12/06 04:15:18;;;;;;;18.17;13.93;;;1.60;99.90;;;;;;5091419;28;20640;-79
2022/12/06 04:23:35;;;;;;;21.37;15.37;;;1.70;99.90;;;;;;5085223;28;20211;-79
2022/12/06 04:26:05;;;;;;;22.60;15.67;;;1.60;99.90;;;;;;5093028;28;20211;-78
2022/12/06 04:39:38;;;;;;;17.00;12.77;;;1.40;99.90;;;;;;5093002;28;20198;-80
2022/12/06 04:44:51;;;;;;;15.10;12.50;;;1.50;99.90;;;;;;5094318;28;20242;-78
2022/12/06 04:47:20;;;;;;;16.90;13.17;;;1.40;99.90;;;;;;5093718;28;20301;-79
2022/12/06 04:49:49;;;;;;;14.97;12.30;;;1.40;99.90;;;;;;5092479;28;20244;-79
2022/12/06 04:52:18;;;;;;;13.47;11.60;;;1.40;99.90;;;;;;5091784;28;20233;-80
2022/12/06 04:54:47;;;;;;;14.63;11.90;;;1.40;99.90;;;;;;5092683;28;20187;-79
2022/12/06 04:57:17;;;;;;;14.50;11.83;;;1.50;99.90;;;;;;5092501;28;20660;-79
2022/12/06 04:59:46;;;;;;;16.00;12.00;;;1.40;99.90;;;;;;5092212;28;20210;-77
2022/12/06 05:02:15;;;;;;;17.57;12.80;;;1.50;99.90;;;;;;5092872;28;20210;-76
2022/12/06 05:04:44;;;;;;;16.73;13.57;;;1.40;99.90;;;;;;5092445;28;20214;-76
2022/12/06 05:07:14;;;;;;;20.10;17.33;;;1.40;99.90;;;;;;5092157;28;20294;-79
2022/12/06 05:09:42;;;;;;;17.97;14.13;;;1.50;99.90;;;;;;5086374;28;20724;-77
2022/12/06 05:12:10;;;;;;;17.77;14.50;;;1.40;99.90;;;;;;5082435;28;20199;-79
2022/12/06 05:14:38;;;;;;;16.63;13.27;;;1.50;99.90;;;;;;5092625;28;20255;-81
2022/12/06 05:17:06;;;;;;;16.30;14.07;;;1.50;99.90;;;;;;5092503;28;20217;-78
2022/12/06 05:19:34;;;;;;;17.47;13.90;;;1.50;99.90;;;;;;5073825;28;20227;-79
2022/12/06 05:22:02;;;;;;;16.73;13.10;;;1.50;99.90;;;;;;5071979;28;20235;-76
2022/12/06 05:24:32;;;;;;;15.70;13.20;;;1.50;99.90;;;;;;5071726;28;20260;-79
2022/12/06 05:27:00;;;;;;;15.03;12.33;;;1.40;99.90;;;;;;5072751;28;20199;-77
2022/12/06 05:29:28;;;;;;;14.20;11.87;;;1.40;99.90;;;;;;5073995;28;20223;-79
2022/12/06 05:31:56;;;;;;;17.97;13.80;;;1.30;99.90;;;;;;5082225;28;20221;-78
2022/12/06 05:34:24;;;;;;;17.80;14.30;;;1.20;99.90;;;;;;5092612;28;20559;-78
2022/12/06 05:36:53;;;;;;;17.50;14.03;;;1.20;99.90;;;;;;5092048;28;20203;-78
2022/12/06 05:39:21;;;;;;;18.47;14.77;;;1.10;99.90;;;;;;5091832;28;20217;-79
2022/12/06 05:41:51;;;;;;;19.03;14.90;;;1.10;99.90;;;;;;5091704;28;20203;-79
2022/12/06 05:44:19;;;;;;;19.27;15.60;;;1.00;99.90;;;;;;5091879;28;20211;-79
2022/12/06 05:46:47;;;;;;;21.27;16.43;;;0.90;99.90;;;;;;5092687;28;20226;-74
2022/12/06 05:49:15;;;;;;;20.90;15.67;;;0.90;99.90;;;;;;5091162;28;20689;-76
2022/12/06 05:51:43;;;;;;;18.13;14.33;;;0.90;99.90;;;;;;5092446;28;20218;-75
2022/12/06 05:54:11;;;;;;;17.13;13.90;;;1.00;99.90;;;;;;5092235;28;20227;-78
2022/12/06 05:56:39;;;;;;;16.40;13.47;;;0.80;99.90;;;;;;5092548;28;20453;-77
2022/12/06 05:59:09;;;;;;;17.63;13.47;;;0.80;99.90;;;;;;5094819;28;20210;-79
2022/12/06 06:01:37;;;;;;;16.33;13.47;;;0.70;99.90;;;;;;5082651;28;20204;-77
2022/12/06 06:04:06;;;;;;;15.43;12.63;;;0.80;99.90;;;;;;5082187;28;20676;-79
2022/12/06 06:06:34;;;;;;;17.60;14.10;;;0.80;99.90;;;;;;5081127;28;20204;-75
2022/12/06 06:09:02;;;;;;;21.17;16.70;;;0.90;99.90;;;;;;5079013;28;20208;-75
2022/12/06 06:11:30;;;;;;;26.50;20.17;;;0.80;99.90;;;;;;5072138;28;20216;-78
2022/12/06 06:13:58;;;;;;;27.27;21.23;;;0.90;99.90;;;;;;5072409;28;20211;-79
2022/12/06 06:16:28;;;;;;;29.23;21.50;;;0.90;99.90;;;;;;5072689;28;20666;-76
2022/12/06 06:18:56;;;;;;;26.13;21.47;;;0.90;99.90;;;;;;5094102;28;20457;-78
2022/12/06 06:21:24;;;;;;;29.70;21.47;;;1.00;99.90;;;;;;5103506;28;20326;-78
2022/12/06 06:23:53;;;;;;;23.23;17.53;;;1.00;99.90;;;;;;5096085;28;20214;-78
2022/12/06 06:26:21;;;;;;;24.83;19.67;;;1.00;99.90;;;;;;5095685;28;20207;-80
2022/12/06 06:28:49;;;;;;;24.33;18.63;;;1.10;99.90;;;;;;5088799;28;20208;-77
2022/12/06 06:31:17;;;;;;;22.97;17.50;;;1.10;99.90;;;;;;5077668;28;20219;-78
2022/12/06 06:33:47;;;;;;;25.97;18.57;;;1.10;99.90;;;;;;5089328;28;20272;-76
2022/12/06 06:36:15;;;;;;;26.70;18.77;;;1.10;99.90;;;;;;5095291;28;20221;-77
2022/12/06 06:38:46;;;;;;;24.97;19.03;;;1.20;99.90;;;;;;5095011;28;20210;-77
2022/12/06 06:41:14;;;;;;;21.47;16.73;;;1.20;99.90;;;;;;5078977;28;20207;-80
2022/12/06 06:43:42;;;;;;;20.77;16.63;;;1.20;99.90;;;;;;5074614;28;20210;-78
2022/12/06 06:46:10;;;;;;;22.37;17.07;;;1.20;99.90;;;;;;5074831;28;20211;-77
2022/12/06 06:48:39;;;;;;;28.87;23.17;;;1.20;99.90;;;;;;5078888;28;20452;-79
2022/12/06 06:51:13;;;;;;;26.63;19.40;;;1.20;99.90;;;;;;5095372;28;20219;-80
2022/12/06 06:53:41;;;;;;;21.60;17.40;;;1.20;99.90;;;;;;5094965;28;20215;-77
2022/12/06 06:56:10;;;;;;;19.93;16.23;;;1.20;99.90;;;;;;5094733;28;20215;-75
2022/12/06 06:58:38;;;;;;;20.77;16.00;;;1.20;99.90;;;;;;5074993;28;20214;-73
2022/12/06 07:01:07;;;;;;;20.67;16.17;;;1.30;99.90;;;;;;5076429;28;20199;-74
2022/12/06 07:03:36;;;;;;;21.53;17.07;;;1.20;99.90;;;;;;5078051;28;20676;-78
2022/12/06 07:06:07;;;;;;;19.80;16.60;;;1.30;99.90;;;;;;5081907;28;20567;-79
2022/12/06 07:08:38;;;;;;;24.00;18.83;;;1.30;99.90;;;;;;5094894;28;20201;-80
2022/12/06 07:11:06;;;;;;;22.43;18.73;;;1.30;99.90;;;;;;5076510;28;20219;-78
2022/12/06 07:13:35;;;;;;;22.00;17.40;;;1.40;99.90;;;;;;5074515;28;20223;-80
2022/12/06 07:16:05;;;;;;;22.97;19.03;;;1.40;99.90;;;;;;5088068;28;20206;-76
2022/12/06 07:18:34;;;;;;;22.97;18.67;;;1.30;99.90;;;;;;5093854;28;20563;-79
2022/12/06 07:21:04;;;;;;;24.93;20.57;;;1.40;99.90;;;;;;5091858;28;20746;-78
2022/12/06 07:23:34;;;;;;;27.97;21.93;;;1.50;99.90;;;;;;5093902;28;20285;-79
2022/12/06 07:26:08;;;;;;;24.97;19.27;;;1.40;99.90;;;;;;5091856;28;20207;-79
2022/12/06 07:28:41;;;;;;;21.37;17.23;;;1.40;99.90;;;;;;5091451;28;20214;-79
2022/12/06 07:31:10;;;;;;;28.90;25.77;;;1.50;99.90;;;;;;5093402;28;20222;-80
2022/12/06 07:33:38;;;;;;;22.30;18.80;;;1.50;99.90;;;;;;5094218;28;20217;-78
2022/12/06 07:36:07;;;;;;;25.07;20.50;;;1.50;99.90;;;;;;5093447;28;20199;-80
2022/12/06 07:38:41;;;;;;;23.77;21.10;;;1.50;99.90;;;;;;5092685;28;20200;-79
2022/12/06 07:46:45;;;;;;;21.43;16.93;;;1.60;99.90;;;;;;5088244;28;20203;-80
2022/12/06 07:49:14;;;;;;;32.10;28.00;;;1.70;99.90;;;;;;5093716;28;20578;-76
2022/12/06 07:51:43;;;;;;;21.53;15.77;;;1.70;99.90;;;;;;5094245;28;20223;-80
2022/12/06 07:54:12;;;;;;;23.43;20.23;;;1.70;99.90;;;;;;5093156;28;20211;-77
2022/12/06 07:56:42;;;;;;;22.40;18.87;;;1.80;99.90;;;;;;5089738;28;20688;-79
2022/12/06 07:59:11;;;;;;;30.50;24.80;;;1.80;99.90;;;;;;5093047;28;20199;-78
2022/12/06 08:01:40;;;;;;;19.07;15.03;;;1.90;99.90;;;;;;5093570;28;20309;-77
2022/12/06 08:04:09;;;;;;;27.87;23.33;;;1.90;99.90;;;;;;5081112;28;20551;-77
2022/12/06 08:06:37;;;;;;;19.27;15.13;;;1.90;99.90;;;;;;5073308;28;20242;-78
2022/12/06 08:09:06;;;;;;;18.67;16.13;;;4.60;99.90;;;;;;5073591;28;20211;-77
2022/12/06 08:11:34;;;;;;;17.83;14.67;;;5.70;99.90;;;;;;5073932;28;20230;-78
2022/12/06 08:14:05;;;;;;;25.60;23.00;;;5.50;99.90;;;;;;5072689;28;20553;-79
2022/12/06 08:16:33;;;;;;;17.70;15.40;;;4.50;99.90;;;;;;5073294;28;20218;-76
2022/12/06 08:19:02;;;;;;;21.87;16.97;;;3.80;99.90;;;;;;5091613;28;20814;-79
2022/12/06 08:21:30;;;;;;;22.03;18.17;;;3.50;99.90;;;;;;5103719;28;20726;-77
2022/12/06 08:23:58;;;;;;;30.10;23.60;;;3.30;99.90;;;;;;5101901;28;20206;-80
2022/12/06 08:26:26;;;;;;;39.90;28.87;;;3.20;99.90;;;;;;5104245;28;20214;-76
2022/12/06 08:28:55;;;;;;;21.30;16.50;;;3.40;99.90;;;;;;5107286;28;20676;-79
2022/12/06 08:31:24;;;;;;;25.70;20.13;;;3.30;99.90;;;;;;5105219;28;20226;-78
2022/12/06 08:33:53;;;;;;;41.77;31.87;;;3.20;99.90;;;;;;5092902;28;20248;-80
2022/12/06 08:36:22;;;;;;;30.60;23.13;;;3.70;99.90;;;;;;5086252;28;20317;-78
2022/12/06 08:38:52;;;;;;;20.97;17.13;;;4.40;99.90;;;;;;5093730;28;20206;-76
2022/12/06 08:44:09;;;;;;;34.07;27.20;;;4.90;99.90;;;;;;5089643;28;20210;-78
2022/12/06 08:46:39;;;;;;;22.37;19.97;;;4.80;99.90;;;;;;5092445;28;20579;-77
2022/12/06 08:49:08;;;;;;;15.87;14.17;;;4.80;99.90;;;;;;5100090;28;20296;-76
2022/12/06 08:51:37;;;;;;;16.40;14.03;;;4.50;99.90;;;;;;5084407;28;20229;-77
2022/12/06 08:54:06;;;;;;;15.50;13.90;;;4.30;99.90;;;;;;5090671;28;20211;-74
2022/12/06 08:56:34;;;;;;;14.80;13.23;;;4.30;99.90;;;;;;5082640;28;20207;-80
2022/12/06 08:59:02;;;;;;;20.43;14.40;;;3.90;99.90;;;;;;5080465;28;20211;-79
2022/12/06 09:01:32;;;;;;;16.03;13.77;;;3.80;99.90;;;;;;5080012;28;20211;-79
2022/12/06 09:04:08;;;;;;;15.67;13.20;;;3.80;99.90;;;;;;5085966;28;20198;-79
2022/12/06 09:06:38;;;;;;;17.50;14.37;;;3.80;99.90;;;;;;5082890;28;20195;-80
2022/12/06 09:09:07;;;;;;;15.73;13.73;;;3.80;99.90;;;;;;5090440;28;20221;-76
2022/12/06 09:11:36;;;;;;;16.47;14.23;;;3.80;99.90;;;;;;5095988;28;20222;-78
2022/12/06 09:14:09;;;;;;;16.67;14.20;;;3.70;99.90;;;;;;5082512;28;20287;-78
2022/12/06 09:16:37;;;;;;;14.53;12.97;;;3.70;99.90;;;;;;5074703;28;20290;-78
2022/12/06 09:19:06;;;;;;;18.47;14.67;;;3.70;99.90;;;;;;5077052;28;20216;-75
2022/12/06 09:21:34;;;;;;;20.70;18.40;;;3.70;99.90;;;;;;5088167;28;20204;-77
2022/12/06 09:24:02;;;;;;;22.47;20.00;;;3.60;99.90;;;;;;5074902;28;20211;-74
2022/12/06 09:26:31;;;;;;;24.83;22.10;;;3.70;99.90;;;;;;5088707;28;20213;-78
2022/12/06 09:28:59;;;;;;;21.83;19.47;;;3.60;99.90;;;;;;5088305;28;20207;-79
2022/12/06 09:31:27;;;;;;;22.23;19.93;;;3.60;99.90;;;;;;5091971;28;20582;-79
2022/12/06 09:33:55;;;;;;;22.00;18.43;;;3.50;99.90;;;;;;5096714;28;20199;-79
2022/12/06 09:36:26;;;;;;;17.07;14.30;;;3.60;99.90;;;;;;5084355;28;20669;-78
2022/12/06 09:39:00;;;;;;;18.17;15.53;;;3.60;99.90;;;;;;5091550;28;20666;-77
2022/12/06 09:41:57;;;;;;;19.27;16.60;;;3.60;99.90;;;;;;5091928;28;20209;-77
2022/12/06 09:44:48;;;;;;;21.73;17.37;;;3.60;99.90;;;;;;5093297;28;20195;-78
2022/12/06 09:47:26;;;;;;;26.23;23.37;;;3.50;99.90;;;;;;5081415;28;20689;-79
2022/12/06 09:50:07;;;;;;;19.07;15.50;;;3.50;99.90;;;;;;5075381;28;20681;-79
2022/12/06 09:52:48;;;;;;;23.63;20.50;;;3.50;99.90;;;;;;5076103;28;20230;-82
2022/12/06 09:55:28;;;;;;;20.43;17.07;;;3.50;99.90;;;;;;5090947;28;20195;-79
2022/12/06 09:58:05;;;;;;;20.07;15.57;;;3.50;99.90;;;;;;5094499;28;20285;-77
2022/12/06 10:00:42;;;;;;;19.93;16.80;;;3.50;99.90;;;;;;5075832;28;20207;-76
2022/12/06 10:03:37;;;;;;;18.27;16.07;;;3.50;99.90;;;;;;5087367;28;20206;-79
2022/12/06 10:06:11;;;;;;;20.23;16.77;;;3.60;99.90;;;;;;5070769;28;20210;-77
2022/12/06 10:09:03;;;;;;;23.50;20.10;;;3.60;99.90;;;;;;5076498;28;20249;-80
2022/12/06 10:11:56;;;;;;;20.67;17.17;;;3.60;99.90;;;;;;5076816;28;20405;-76
2022/12/06 10:14:39;;;;;;;18.60;16.13;;;3.70;99.90;;;;;;5086021;28;20207;-73
2022/12/06 10:17:19;;;;;;;18.30;16.10;;;3.60;99.90;;;;;;5087199;28;20195;-80
2022/12/06 10:19:58;;;;;;;19.07;15.70;;;3.50;99.90;;;;;;5075806;28;20252;-72
2022/12/06 10:22:39;;;;;;;18.63;15.30;;;3.60;99.90;;;;;;5077181;28;20211;-78
2022/12/06 10:25:14;;;;;;;18.87;16.20;;;3.60;99.90;;;;;;5084431;28;20807;-76
2022/12/06 10:27:51;;;;;;;22.03;18.47;;;3.70;99.90;;;;;;5075973;28;20199;-78
2022/12/06 10:30:20;;;;;;;21.30;17.93;;;3.70;99.90;;;;;;5086935;28;20260;-78
2022/12/06 10:32:52;;;;;;;22.37;18.87;;;3.70;99.90;;;;;;5089135;28;20231;-77
2022/12/06 10:35:34;;;;;;;25.97;23.20;;;3.80;99.90;;;;;;5074967;28;20559;-77
2022/12/06 10:38:11;;;;;;;35.33;31.53;;;3.70;99.90;;;;;;5089411;28;20214;-78
2022/12/06 10:40:49;;;;;;;20.67;17.13;;;3.80;99.90;;;;;;5087990;28;20231;-77
2022/12/06 10:43:28;;;;;;;20.03;17.93;;;3.80;99.90;;;;;;5080063;28;20230;-76
2022/12/06 10:49:00;;;;;;;22.93;19.97;;;3.80;99.90;;;;;;5091787;28;20272;-77
2022/12/06 10:51:36;;;;;;;21.53;19.23;;;3.90;99.90;;;;;;5112126;28;20206;-74
2022/12/06 10:54:19;;;;;;;18.17;15.97;;;3.90;99.90;;;;;;5116600;28;20216;-77
2022/12/06 10:56:52;;;;;;;20.73;18.13;;;3.80;99.90;;;;;;5079578;28;20759;-78
2022/12/06 10:59:35;;;;;;;19.67;15.97;;;3.90;99.90;;;;;;5095755;28;20203;-78
2022/12/06 11:02:19;;;;;;;19.30;15.30;;;4.00;99.90;;;;;;5095281;28;20199;-79
2022/12/06 11:04:49;;;;;;;21.70;18.20;;;4.00;99.90;;;;;;5089160;28;20256;-73
2022/12/06 11:07:23;;;;;;;16.73;14.80;;;4.00;99.90;;;;;;5084809;28;20225;-80
2022/12/06 11:09:54;;;;;;;18.50;16.60;;;4.00;99.90;;;;;;5093670;28;20457;-75
2022/12/06 11:12:28;;;;;;;20.23;17.80;;;3.90;99.90;;;;;;5093883;28;20689;-74
2022/12/06 11:15:04;;;;;;;18.70;16.23;;;3.90;99.90;;;;;;5067776;28;20235;-77
2022/12/06 11:17:36;;;;;;;17.90;15.33;;;4.00;99.90;;;;;;5095987;28;20195;-77
2022/12/06 11:20:15;;;;;;;17.40;14.27;;;4.00;99.90;;;;;;5097824;28;20192;-76
2022/12/06 11:22:50;;;;;;;22.03;18.53;;;3.90;99.90;;;;;;5089290;28;20199;-77
2022/12/06 11:25:25;;;;;;;20.27;17.57;;;3.90;99.90;;;;;;5075344;28;20203;-80
2022/12/06 11:28:00;;;;;;;18.40;15.57;;;4.00;99.90;;;;;;5094095;28;20285;-79
2022/12/06 11:30:30;;;;;;;17.60;15.40;;;3.90;99.90;;;;;;5088692;28;20256;-77
2022/12/06 11:33:01;;;;;;;16.70;14.20;;;4.10;99.90;;;;;;5074279;28;20263;-78
2022/12/06 11:35:29;;;;;;;15.80;13.13;;;4.00;99.90;;;;;;5074476;28;20211;-80
2022/12/06 11:38:02;;;;;;;15.33;13.50;;;4.00;99.90;;;;;;5084730;28;20227;-79
2022/12/06 11:40:33;;;;;;;15.20;12.93;;;4.00;99.90;;;;;;5082300;28;20577;-77
2022/12/06 11:43:06;;;;;;;13.90;11.90;;;4.10;99.90;;;;;;5073483;28;20222;-79
2022/12/06 11:45:37;;;;;;;15.93;13.33;;;4.00;99.90;;;;;;5073351;28;20222;-78
2022/12/06 11:48:14;;;;;;;14.53;12.93;;;3.90;99.90;;;;;;5084226;28;20195;-78
2022/12/06 11:50:43;;;;;;;15.83;13.40;;;4.10;99.90;;;;;;5093918;28;20560;-76
2022/12/06 11:53:17;;;;;;;14.10;12.20;;;4.10;99.90;;;;;;5089825;28;20227;-79
2022/12/06 11:55:49;;;;;;;16.33;11.77;;;4.00;99.90;;;;;;5077208;28;20237;-78
2022/12/06 11:58:25;;;;;;;14.10;12.23;;;4.00;99.90;;;;;;5093031;28;20651;-79
2022/12/06 12:01:00;;;;;;;14.57;12.10;;;4.00;99.90;;;;;;5093634;28;20209;-78
2022/12/06 12:03:31;;;;;;;15.83;14.13;;;4.20;99.90;;;;;;5084948;28;20206;-77
2022/12/06 12:06:09;;;;;;;15.87;13.27;;;4.20;99.90;;;;;;5091657;28;20203;-77
2022/12/06 12:08:38;;;;;;;15.47;13.77;;;4.10;99.90;;;;;;5089202;28;20309;-79
2022/12/06 12:11:06;;;;;;;21.40;19.20;;;4.10;99.90;;;;;;5092023;28;20282;-78
2022/12/06 12:13:46;;;;;;;14.23;12.63;;;4.10;99.90;;;;;;5092154;28;20233;-76
2022/12/06 12:16:20;;;;;;;15.20;11.50;;;4.20;99.90;;;;;;5092297;28;20195;-78
2022/12/06 12:18:56;;;;;;;15.53;13.87;;;4.20;99.90;;;;;;5088360;28;20223;-75
2022/12/06 12:21:33;;;;;;;15.10;12.30;;;4.10;99.90;;;;;;5082772;28;20220;-76
2022/12/06 12:24:01;;;;;;;16.70;12.47;;;4.20;99.90;;;;;;5073355;28;20198;-78
2022/12/06 12:26:39;;;;;;;15.60;12.10;;;4.20;99.90;;;;;;5100197;28;20203;-78
2022/12/06 12:29:20;;;;;;;12.73;11.17;;;4.20;99.90;;;;;;5101814;28;20195;-75
2022/12/06 12:31:54;;;;;;;17.87;14.50;;;4.20;99.90;;;;;;5094864;28;20205;-74
2022/12/06 12:34:25;;;;;;;15.07;11.47;;;4.20;99.90;;;;;;5096977;28;20622;-78
2022/12/06 12:36:59;;;;;;;13.87;11.10;;;4.30;99.90;;;;;;5094306;28;20199;-76
2022/12/06 12:39:34;;;;;;;12.50;11.20;;;4.50;99.90;;;;;;5092550;28;20220;-76
2022/12/06 12:42:02;;;;;;;13.97;11.10;;;4.40;99.90;;;;;;5124707;28;20182;-76
2022/12/06 12:44:34;;;;;;;14.03;10.53;;;4.30;99.90;;;;;;5091224;28;20211;-75
2022/12/06 12:47:17;;;;;;;12.73;11.20;;;4.30;99.90;;;;;;5093050;28;20225;-79
2022/12/06 12:50:00;;;;;;;13.23;10.73;;;4.40;99.90;;;;;;5081583;28;20206;-76
2022/12/06 12:52:31;;;;;;;14.27;10.70;;;4.30;99.90;;;;;;5093345;28;20241;-79
2022/12/06 12:55:01;;;;;;;11.43;10.03;;;4.20;99.90;;;;;;5093036;28;20195;-79
2022/12/06 12:57:33;;;;;;;13.07;11.13;;;4.00;99.90;;;;;;5092883;28;20239;-77
2022/12/06 13:00:03;;;;;;;16.13;11.80;;;4.10;99.90;;;;;;5092660;28;20203;-77
2022/12/06 13:02:34;;;;;;;14.30;10.70;;;4.10;99.90;;;;;;5091077;28;20203;-77
2022/12/06 13:05:07;;;;;;;14.73;11.83;;;4.10;99.90;;;;;;5080684;28;20669;-78
2022/12/06 13:08:05;;;;;;;15.57;10.70;;;4.20;99.90;;;;;;5091541;28;20226;-78
2022/12/06 13:10:36;;;;;;;13.50;11.73;;;4.20;99.90;;;;;;5087241;28;20207;-78
2022/12/06 13:13:12;;;;;;;12.27;10.23;;;4.20;99.90;;;;;;5092181;28;20215;-78
2022/12/06 13:15:46;;;;;;;12.87;10.70;;;4.20;99.90;;;;;;5092937;28;20234;-78
2022/12/06 13:18:21;;;;;;;11.33;9.13;;;4.10;99.90;;;;;;5092511;28;20738;-79
2022/12/06 13:20:51;;;;;;;11.10;9.60;;;4.20;99.90;;;;;;5092990;28;20289;-77
2022/12/06 13:23:20;;;;;;;10.87;9.30;;;4.20;99.90;;;;;;5088456;28;20194;-80
2022/12/06 13:25:53;;;;;;;13.10;9.87;;;4.20;99.90;;;;;;5091390;28;20227;-78
2022/12/06 13:28:26;;;;;;;13.03;8.80;;;4.30;99.90;;;;;;5084037;28;20212;-78
2022/12/06 13:31:00;;;;;;;15.60;10.17;;;4.30;99.90;;;;;;5103293;28;20202;-78
2022/12/06 13:33:32;;;;;;;13.43;10.20;;;4.30;99.90;;;;;;5090245;28;20218;-78
2022/12/06 13:36:04;;;;;;;10.77;8.97;;;4.20;99.90;;;;;;5077538;28;20199;-76